sensor_id;sensor_type;location;lat;lon;timestamp;temperature;humidity
56512;DHT22;42408;53.238;5.686;2024-03-22T00:00:32;10.40;99.90
56512;DHT22;42408;53.238;5.686;2024-03-22T00:02:58;10.50;99.90
56512;DHT22;42408;53.238;5.686;2024-03-22T00:05:24;10.20;99.90
56512;DHT22;42408;53.238;5.686;2024-03-22T00:07:49;10.20;99.90
56512;DHT22;42408;53.238;5.686;2024-03-22T00:10:15;10.10;99.90
56512;DHT22;42408;53.238;5.686;2024-03-22T00:12:41;10.20;99.90
56512;DHT22;42408;53.238;5.686;2024-03-22T00:15:07;10.30;99.90
56512;DHT22;42408;53.238;5.686;2024-03-22T00:17:32;10.20;99.90
56512;DHT22;42408;53.238;5.686;2024-03-22T00:19:59;10.30;99.90
56512;DHT22;42408;53.238;5.686;2024-03-22T00:22:25;10.10;99.90
56512;DHT22;42408;53.238;5.686;2024-03-22T00:24:51;10.30;99.90
56512;DHT22;42408;53.238;5.686;2024-03-22T00:27:16;10.40;99.90
56512;DHT22;42408;53.238;5.686;2024-03-22T00:29:42;10.60;99.90
56512;DHT22;42408;53.238;5.686;2024-03-22T00:32:08;10.30;99.90
56512;DHT22;42408;53.238;5.686;2024-03-22T00:34:34;10.40;99.90
56512;DHT22;42408;53.238;5.686;2024-03-22T00:37:00;10.40;99.90
56512;DHT22;42408;53.238;5.686;2024-03-22T00:39:26;10.90;99.90
56512;DHT22;42408;53.238;5.686;2024-03-22T00:41:51;10.50;99.90
56512;DHT22;42408;53.238;5.686;2024-03-22T00:44:17;10.70;99.90
56512;DHT22;42408;53.238;5.686;2024-03-22T00:46:42;10.50;99.90
56512;DHT22;42408;53.238;5.686;2024-03-22T00:49:08;10.50;99.90
56512;DHT22;42408;53.238;5.686;2024-03-22T00:51:34;10.70;99.90
56512;DHT22;42408;53.238;5.686;2024-03-22T00:53:59;10.70;99.90
56512;DHT22;42408;53.238;5.686;2024-03-22T00:56:25;10.40;99.90
56512;DHT22;42408;53.238;5.686;2024-03-22T00:58:50;10.70;99.90
56512;DHT22;42408;53.238;5.686;2024-03-22T01:01:16;10.80;99.90
56512;DHT22;42408;53.238;5.686;2024-03-22T01:03:42;10.50;99.90
56512;DHT22;42408;53.238;5.686;2024-03-22T01:06:07;10.70;99.90
56512;DHT22;42408;53.238;5.686;2024-03-22T01:08:33;10.80;99.90
56512;DHT22;42408;53.238;5.686;2024-03-22T01:10:59;10.80;99.90
56512;DHT22;42408;53.238;5.686;2024-03-22T01:13:25;10.60;99.90
56512;DHT22;42408;53.238;5.686;2024-03-22T01:15:50;10.50;99.90
56512;DHT22;42408;53.238;5.686;2024-03-22T01:18:16;10.60;99.90
56512;DHT22;42408;53.238;5.686;2024-03-22T01:20:42;10.70;99.90
56512;DHT22;42408;53.238;5.686;2024-03-22T01:23:08;10.80;99.90
56512;DHT22;42408;53.238;5.686;2024-03-22T01:25:34;10.80;99.90
56512;DHT22;42408;53.238;5.686;2024-03-22T01:27:59;11.10;99.90
56512;DHT22;42408;53.238;5.686;2024-03-22T01:30:25;10.80;99.90
56512;DHT22;42408;53.238;5.686;2024-03-22T01:32:54;10.80;99.90
56512;DHT22;42408;53.238;5.686;2024-03-22T01:35:20;10.60;99.90
56512;DHT22;42408;53.238;5.686;2024-03-22T01:37:46;10.80;99.90
56512;DHT22;42408;53.238;5.686;2024-03-22T01:40:12;10.80;99.90
56512;DHT22;42408;53.238;5.686;2024-03-22T01:42:38;10.80;99.90
56512;DHT22;42408;53.238;5.686;2024-03-22T01:45:04;10.80;99.90
56512;DHT22;42408;53.238;5.686;2024-03-22T01:47:29;10.80;99.90
56512;DHT22;42408;53.238;5.686;2024-03-22T01:49:56;10.80;99.90
56512;DHT22;42408;53.238;5.686;2024-03-22T01:52:22;10.90;99.90
56512;DHT22;42408;53.238;5.686;2024-03-22T01:54:49;10.80;99.90
56512;DHT22;42408;53.238;5.686;2024-03-22T01:57:15;10.80;99.90
56512;DHT22;42408;53.238;5.686;2024-03-22T01:59:41;10.70;99.90
56512;DHT22;42408;53.238;5.686;2024-03-22T02:02:07;11.00;99.90
56512;DHT22;42408;53.238;5.686;2024-03-22T02:04:32;10.70;99.90
56512;DHT22;42408;53.238;5.686;2024-03-22T02:06:58;10.70;99.90
56512;DHT22;42408;53.238;5.686;2024-03-22T02:09:24;11.00;99.90
56512;DHT22;42408;53.238;5.686;2024-03-22T02:11:50;10.80;99.90
56512;DHT22;42408;53.238;5.686;2024-03-22T02:14:16;10.50;99.90
56512;DHT22;42408;53.238;5.686;2024-03-22T02:16:42;11.00;99.90
56512;DHT22;42408;53.238;5.686;2024-03-22T02:19:08;10.50;99.90
56512;DHT22;42408;53.238;5.686;2024-03-22T02:21:34;10.80;99.90
56512;DHT22;42408;53.238;5.686;2024-03-22T02:24:00;10.80;99.90
56512;DHT22;42408;53.238;5.686;2024-03-22T02:26:25;10.80;99.90
56512;DHT22;42408;53.238;5.686;2024-03-22T02:28:51;10.60;99.90
56512;DHT22;42408;53.238;5.686;2024-03-22T02:31:16;10.70;99.90
56512;DHT22;42408;53.238;5.686;2024-03-22T02:33:42;10.60;99.90
56512;DHT22;42408;53.238;5.686;2024-03-22T02:36:08;10.90;99.90
56512;DHT22;42408;53.238;5.686;2024-03-22T02:38:34;10.60;99.90
56512;DHT22;42408;53.238;5.686;2024-03-22T02:41:00;10.60;99.90
56512;DHT22;42408;53.238;5.686;2024-03-22T02:43:25;10.60;99.90
56512;DHT22;42408;53.238;5.686;2024-03-22T02:45:51;10.50;99.90
56512;DHT22;42408;53.238;5.686;2024-03-22T02:48:16;11.60;99.90
56512;DHT22;42408;53.238;5.686;2024-03-22T02:50:42;10.60;99.90
56512;DHT22;42408;53.238;5.686;2024-03-22T02:53:08;10.50;99.90
56512;DHT22;42408;53.238;5.686;2024-03-22T02:55:40;10.60;99.90
56512;DHT22;42408;53.238;5.686;2024-03-22T02:58:06;10.60;99.90
56512;DHT22;42408;53.238;5.686;2024-03-22T03:00:38;10.50;99.90
56512;DHT22;42408;53.238;5.686;2024-03-22T03:03:05;10.60;99.90
56512;DHT22;42408;53.238;5.686;2024-03-22T03:05:31;10.40;99.90
56512;DHT22;42408;53.238;5.686;2024-03-22T03:07:57;10.60;99.90
56512;DHT22;42408;53.238;5.686;2024-03-22T03:10:22;10.50;99.90
56512;DHT22;42408;53.238;5.686;2024-03-22T03:12:48;10.60;99.90
56512;DHT22;42408;53.238;5.686;2024-03-22T03:15:14;10.50;99.90
56512;DHT22;42408;53.238;5.686;2024-03-22T03:17:39;10.60;99.90
56512;DHT22;42408;53.238;5.686;2024-03-22T03:20:05;10.60;99.90
56512;DHT22;42408;53.238;5.686;2024-03-22T03:22:34;10.60;99.90
56512;DHT22;42408;53.238;5.686;2024-03-22T03:25:00;10.60;99.90
56512;DHT22;42408;53.238;5.686;2024-03-22T03:27:25;10.60;99.90
56512;DHT22;42408;53.238;5.686;2024-03-22T03:29:52;10.60;99.90
56512;DHT22;42408;53.238;5.686;2024-03-22T03:32:18;10.60;99.90
56512;DHT22;42408;53.238;5.686;2024-03-22T03:34:43;10.50;99.90
56512;DHT22;42408;53.238;5.686;2024-03-22T03:37:09;10.50;99.90
56512;DHT22;42408;53.238;5.686;2024-03-22T03:39:35;10.40;99.90
56512;DHT22;42408;53.238;5.686;2024-03-22T03:42:00;10.70;99.90
56512;DHT22;42408;53.238;5.686;2024-03-22T03:44:26;10.70;99.90
56512;DHT22;42408;53.238;5.686;2024-03-22T03:46:52;10.60;99.90
56512;DHT22;42408;53.238;5.686;2024-03-22T03:49:17;10.60;99.90
56512;DHT22;42408;53.238;5.686;2024-03-22T03:51:43;10.50;99.90
56512;DHT22;42408;53.238;5.686;2024-03-22T03:54:09;10.60;99.90
56512;DHT22;42408;53.238;5.686;2024-03-22T03:56:34;10.70;99.90
56512;DHT22;42408;53.238;5.686;2024-03-22T03:59:00;10.40;99.90
56512;DHT22;42408;53.238;5.686;2024-03-22T04:01:25;10.50;99.90
56512;DHT22;42408;53.238;5.686;2024-03-22T04:03:51;10.50;99.90
56512;DHT22;42408;53.238;5.686;2024-03-22T04:06:17;10.80;99.90
56512;DHT22;42408;53.238;5.686;2024-03-22T04:08:43;11.00;99.90
56512;DHT22;42408;53.238;5.686;2024-03-22T04:11:09;10.20;99.90
56512;DHT22;42408;53.238;5.686;2024-03-22T04:13:34;10.60;99.90
56512;DHT22;42408;53.238;5.686;2024-03-22T04:16:00;10.40;99.90
56512;DHT22;42408;53.238;5.686;2024-03-22T04:18:26;10.40;99.90
56512;DHT22;42408;53.238;5.686;2024-03-22T04:20:56;10.40;99.90
56512;DHT22;42408;53.238;5.686;2024-03-22T04:23:22;10.70;99.90
56512;DHT22;42408;53.238;5.686;2024-03-22T04:25:58;10.40;99.90
56512;DHT22;42408;53.238;5.686;2024-03-22T04:28:25;10.40;99.90
56512;DHT22;42408;53.238;5.686;2024-03-22T04:30:58;10.40;99.90
56512;DHT22;42408;53.238;5.686;2024-03-22T04:33:24;10.40;99.90
56512;DHT22;42408;53.238;5.686;2024-03-22T04:35:50;10.40;99.90
56512;DHT22;42408;53.238;5.686;2024-03-22T04:38:16;10.40;99.90
56512;DHT22;42408;53.238;5.686;2024-03-22T04:40:41;10.60;99.90
56512;DHT22;42408;53.238;5.686;2024-03-22T04:43:08;10.40;99.90
56512;DHT22;42408;53.238;5.686;2024-03-22T04:45:33;10.40;99.90
56512;DHT22;42408;53.238;5.686;2024-03-22T04:48:01;10.20;99.90
56512;DHT22;42408;53.238;5.686;2024-03-22T04:50:27;10.40;99.90
56512;DHT22;42408;53.238;5.686;2024-03-22T04:52:53;10.30;99.90
56512;DHT22;42408;53.238;5.686;2024-03-22T04:55:18;10.50;99.90
56512;DHT22;42408;53.238;5.686;2024-03-22T04:57:44;10.10;99.90
56512;DHT22;42408;53.238;5.686;2024-03-22T05:00:10;10.30;99.90
56512;DHT22;42408;53.238;5.686;2024-03-22T05:02:35;10.30;99.90
56512;DHT22;42408;53.238;5.686;2024-03-22T05:05:01;10.30;99.90
56512;DHT22;42408;53.238;5.686;2024-03-22T05:07:27;10.40;99.90
56512;DHT22;42408;53.238;5.686;2024-03-22T05:09:52;10.50;99.90
56512;DHT22;42408;53.238;5.686;2024-03-22T05:12:18;10.30;99.90
56512;DHT22;42408;53.238;5.686;2024-03-22T05:14:44;10.30;99.90
56512;DHT22;42408;53.238;5.686;2024-03-22T05:17:09;10.20;99.90
56512;DHT22;42408;53.238;5.686;2024-03-22T05:19:35;10.20;99.90
56512;DHT22;42408;53.238;5.686;2024-03-22T05:22:00;10.00;99.90
56512;DHT22;42408;53.238;5.686;2024-03-22T05:24:27;10.50;99.90
56512;DHT22;42408;53.238;5.686;2024-03-22T05:26:53;10.20;99.90
56512;DHT22;42408;53.238;5.686;2024-03-22T05:29:19;10.20;99.90
56512;DHT22;42408;53.238;5.686;2024-03-22T05:31:49;10.40;99.90
56512;DHT22;42408;53.238;5.686;2024-03-22T05:34:16;10.10;99.90
56512;DHT22;42408;53.238;5.686;2024-03-22T05:36:42;10.10;99.90
56512;DHT22;42408;53.238;5.686;2024-03-22T05:39:08;10.40;99.90
56512;DHT22;42408;53.238;5.686;2024-03-22T05:41:36;9.90;99.90
56512;DHT22;42408;53.238;5.686;2024-03-22T05:44:01;9.80;99.90
56512;DHT22;42408;53.238;5.686;2024-03-22T05:46:31;9.90;99.90
56512;DHT22;42408;53.238;5.686;2024-03-22T05:48:57;10.10;99.90
56512;DHT22;42408;53.238;5.686;2024-03-22T05:51:24;10.30;99.90
56512;DHT22;42408;53.238;5.686;2024-03-22T05:53:50;10.30;99.90
56512;DHT22;42408;53.238;5.686;2024-03-22T05:56:15;10.10;99.90
56512;DHT22;42408;53.238;5.686;2024-03-22T05:58:41;10.10;99.90
56512;DHT22;42408;53.238;5.686;2024-03-22T06:01:06;10.20;99.90
56512;DHT22;42408;53.238;5.686;2024-03-22T06:03:32;10.30;99.90
56512;DHT22;42408;53.238;5.686;2024-03-22T06:06:01;10.00;99.90
56512;DHT22;42408;53.238;5.686;2024-03-22T06:08:27;10.20;99.90
56512;DHT22;42408;53.238;5.686;2024-03-22T06:10:54;10.10;99.90
56512;DHT22;42408;53.238;5.686;2024-03-22T06:13:20;10.30;99.90
56512;DHT22;42408;53.238;5.686;2024-03-22T06:15:48;10.40;99.90
56512;DHT22;42408;53.238;5.686;2024-03-22T06:18:14;10.00;99.90
56512;DHT22;42408;53.238;5.686;2024-03-22T06:20:40;10.00;99.90
56512;DHT22;42408;53.238;5.686;2024-03-22T06:23:08;10.10;99.90
56512;DHT22;42408;53.238;5.686;2024-03-22T06:25:34;10.00;99.90
56512;DHT22;42408;53.238;5.686;2024-03-22T06:27:59;10.00;99.90
56512;DHT22;42408;53.238;5.686;2024-03-22T06:30:25;9.90;99.90
56512;DHT22;42408;53.238;5.686;2024-03-22T06:32:51;10.30;99.90
56512;DHT22;42408;53.238;5.686;2024-03-22T06:35:16;10.00;99.90
56512;DHT22;42408;53.238;5.686;2024-03-22T06:37:42;10.10;99.90
56512;DHT22;42408;53.238;5.686;2024-03-22T06:40:08;10.30;99.90
56512;DHT22;42408;53.238;5.686;2024-03-22T06:42:33;9.90;99.90
56512;DHT22;42408;53.238;5.686;2024-03-22T06:44:59;9.70;99.90
56512;DHT22;42408;53.238;5.686;2024-03-22T06:47:25;9.90;99.90
56512;DHT22;42408;53.238;5.686;2024-03-22T06:49:50;9.90;99.90
56512;DHT22;42408;53.238;5.686;2024-03-22T06:52:16;9.90;99.90
56512;DHT22;42408;53.238;5.686;2024-03-22T06:54:43;9.90;99.90
56512;DHT22;42408;53.238;5.686;2024-03-22T06:57:09;9.90;99.90
56512;DHT22;42408;53.238;5.686;2024-03-22T06:59:35;9.70;99.90
56512;DHT22;42408;53.238;5.686;2024-03-22T07:02:00;9.90;99.90
56512;DHT22;42408;53.238;5.686;2024-03-22T07:04:26;9.70;99.90
56512;DHT22;42408;53.238;5.686;2024-03-22T07:06:51;9.80;99.90
56512;DHT22;42408;53.238;5.686;2024-03-22T07:09:17;10.40;99.90
56512;DHT22;42408;53.238;5.686;2024-03-22T07:11:43;10.00;99.90
56512;DHT22;42408;53.238;5.686;2024-03-22T07:14:09;9.70;99.90
56512;DHT22;42408;53.238;5.686;2024-03-22T07:16:34;9.70;99.90
56512;DHT22;42408;53.238;5.686;2024-03-22T07:19:02;9.90;99.90
56512;DHT22;42408;53.238;5.686;2024-03-22T07:21:29;9.70;99.90
56512;DHT22;42408;53.238;5.686;2024-03-22T07:23:54;9.90;99.90
56512;DHT22;42408;53.238;5.686;2024-03-22T07:26:20;9.90;99.90
56512;DHT22;42408;53.238;5.686;2024-03-22T07:28:46;9.80;99.90
56512;DHT22;42408;53.238;5.686;2024-03-22T07:31:11;9.80;99.90
56512;DHT22;42408;53.238;5.686;2024-03-22T07:33:37;9.80;99.90
56512;DHT22;42408;53.238;5.686;2024-03-22T07:36:05;10.20;99.90
56512;DHT22;42408;53.238;5.686;2024-03-22T07:38:30;9.90;99.90
56512;DHT22;42408;53.238;5.686;2024-03-22T07:40:56;9.70;99.90
56512;DHT22;42408;53.238;5.686;2024-03-22T07:43:22;10.00;99.90
56512;DHT22;42408;53.238;5.686;2024-03-22T07:45:48;9.90;99.90
56512;DHT22;42408;53.238;5.686;2024-03-22T07:48:13;9.90;99.90
56512;DHT22;42408;53.238;5.686;2024-03-22T07:50:39;9.90;99.90
56512;DHT22;42408;53.238;5.686;2024-03-22T07:53:04;9.80;99.90
56512;DHT22;42408;53.238;5.686;2024-03-22T07:55:30;9.90;99.90
56512;DHT22;42408;53.238;5.686;2024-03-22T07:57:56;10.20;99.90
56512;DHT22;42408;53.238;5.686;2024-03-22T08:00:23;10.00;99.90
56512;DHT22;42408;53.238;5.686;2024-03-22T08:02:53;9.90;99.90
56512;DHT22;42408;53.238;5.686;2024-03-22T08:05:20;9.90;99.90
56512;DHT22;42408;53.238;5.686;2024-03-22T08:07:45;9.80;99.90
56512;DHT22;42408;53.238;5.686;2024-03-22T08:10:11;10.20;99.90
56512;DHT22;42408;53.238;5.686;2024-03-22T08:12:36;9.70;99.90
56512;DHT22;42408;53.238;5.686;2024-03-22T08:15:02;10.10;99.90
56512;DHT22;42408;53.238;5.686;2024-03-22T08:17:28;9.90;99.90
56512;DHT22;42408;53.238;5.686;2024-03-22T08:19:54;10.00;99.90
56512;DHT22;42408;53.238;5.686;2024-03-22T08:22:20;9.90;99.90
56512;DHT22;42408;53.238;5.686;2024-03-22T08:24:45;10.30;99.90
56512;DHT22;42408;53.238;5.686;2024-03-22T08:27:11;9.90;99.90
56512;DHT22;42408;53.238;5.686;2024-03-22T08:29:37;10.00;99.90
56512;DHT22;42408;53.238;5.686;2024-03-22T08:32:03;9.90;99.90
56512;DHT22;42408;53.238;5.686;2024-03-22T08:34:32;10.10;99.90
56512;DHT22;42408;53.238;5.686;2024-03-22T08:36:58;10.00;99.90
56512;DHT22;42408;53.238;5.686;2024-03-22T08:39:24;9.90;99.90
56512;DHT22;42408;53.238;5.686;2024-03-22T08:41:51;10.40;99.90
56512;DHT22;42408;53.238;5.686;2024-03-22T08:44:17;10.00;99.90
56512;DHT22;42408;53.238;5.686;2024-03-22T08:46:43;10.50;99.90
56512;DHT22;42408;53.238;5.686;2024-03-22T08:49:09;10.00;99.90
56512;DHT22;42408;53.238;5.686;2024-03-22T08:51:34;10.10;99.90
56512;DHT22;42408;53.238;5.686;2024-03-22T08:54:00;10.20;99.90
56512;DHT22;42408;53.238;5.686;2024-03-22T08:56:26;10.30;99.90
56512;DHT22;42408;53.238;5.686;2024-03-22T08:58:52;10.20;99.90
56512;DHT22;42408;53.238;5.686;2024-03-22T09:01:18;10.30;99.90
56512;DHT22;42408;53.238;5.686;2024-03-22T09:03:43;10.40;99.90
56512;DHT22;42408;53.238;5.686;2024-03-22T09:06:12;10.00;99.90
56512;DHT22;42408;53.238;5.686;2024-03-22T09:08:38;10.10;99.90
56512;DHT22;42408;53.238;5.686;2024-03-22T09:11:03;10.10;99.90
56512;DHT22;42408;53.238;5.686;2024-03-22T09:13:30;10.00;99.90
56512;DHT22;42408;53.238;5.686;2024-03-22T09:15:59;10.10;99.90
56512;DHT22;42408;53.238;5.686;2024-03-22T09:18:25;10.30;99.90
56512;DHT22;42408;53.238;5.686;2024-03-22T09:20:51;10.30;99.90
56512;DHT22;42408;53.238;5.686;2024-03-22T09:23:17;10.30;99.90
56512;DHT22;42408;53.238;5.686;2024-03-22T09:25:42;9.90;99.90
56512;DHT22;42408;53.238;5.686;2024-03-22T09:28:08;10.00;99.90
56512;DHT22;42408;53.238;5.686;2024-03-22T09:30:38;10.10;99.90
56512;DHT22;42408;53.238;5.686;2024-03-22T09:33:05;10.00;99.90
56512;DHT22;42408;53.238;5.686;2024-03-22T09:35:31;10.00;99.90
56512;DHT22;42408;53.238;5.686;2024-03-22T09:37:57;10.20;99.90
56512;DHT22;42408;53.238;5.686;2024-03-22T09:40:24;10.30;99.90
56512;DHT22;42408;53.238;5.686;2024-03-22T09:42:49;10.70;99.90
56512;DHT22;42408;53.238;5.686;2024-03-22T09:45:19;10.40;99.90
56512;DHT22;42408;53.238;5.686;2024-03-22T09:47:47;10.60;99.90
56512;DHT22;42408;53.238;5.686;2024-03-22T09:50:13;10.30;99.90
56512;DHT22;42408;53.238;5.686;2024-03-22T09:52:41;10.30;99.90
56512;DHT22;42408;53.238;5.686;2024-03-22T09:55:08;10.60;99.90
56512;DHT22;42408;53.238;5.686;2024-03-22T09:57:38;10.40;99.90
56512;DHT22;42408;53.238;5.686;2024-03-22T10:00:08;10.50;99.90
56512;DHT22;42408;53.238;5.686;2024-03-22T10:02:34;10.30;99.90
56512;DHT22;42408;53.238;5.686;2024-03-22T10:05:00;10.40;99.90
56512;DHT22;42408;53.238;5.686;2024-03-22T10:07:28;10.40;99.90
56512;DHT22;42408;53.238;5.686;2024-03-22T10:09:58;10.40;99.90
56512;DHT22;42408;53.238;5.686;2024-03-22T10:12:24;10.60;99.90
56512;DHT22;42408;53.238;5.686;2024-03-22T10:14:52;10.50;99.90
56512;DHT22;42408;53.238;5.686;2024-03-22T10:17:18;10.40;99.90
56512;DHT22;42408;53.238;5.686;2024-03-22T10:19:44;10.80;99.90
56512;DHT22;42408;53.238;5.686;2024-03-22T10:22:09;10.60;99.90
56512;DHT22;42408;53.238;5.686;2024-03-22T10:24:35;10.60;99.90
56512;DHT22;42408;53.238;5.686;2024-03-22T10:27:01;10.40;99.90
56512;DHT22;42408;53.238;5.686;2024-03-22T10:29:27;10.40;99.90
56512;DHT22;42408;53.238;5.686;2024-03-22T10:31:54;10.40;99.90
56512;DHT22;42408;53.238;5.686;2024-03-22T10:34:24;10.60;99.90
56512;DHT22;42408;53.238;5.686;2024-03-22T10:36:50;10.50;99.90
56512;DHT22;42408;53.238;5.686;2024-03-22T10:39:19;10.70;99.90
56512;DHT22;42408;53.238;5.686;2024-03-22T10:41:45;10.70;99.90
56512;DHT22;42408;53.238;5.686;2024-03-22T10:44:12;10.50;99.90
56512;DHT22;42408;53.238;5.686;2024-03-22T10:46:38;10.50;99.90
56512;DHT22;42408;53.238;5.686;2024-03-22T10:49:05;10.60;99.90
56512;DHT22;42408;53.238;5.686;2024-03-22T10:51:34;10.40;99.90
56512;DHT22;42408;53.238;5.686;2024-03-22T10:54:02;10.50;99.90
56512;DHT22;42408;53.238;5.686;2024-03-22T10:56:29;10.50;99.90
56512;DHT22;42408;53.238;5.686;2024-03-22T10:58:55;10.40;99.90
56512;DHT22;42408;53.238;5.686;2024-03-22T11:01:25;10.50;99.90
56512;DHT22;42408;53.238;5.686;2024-03-22T11:04:04;10.60;99.90
56512;DHT22;42408;53.238;5.686;2024-03-22T11:06:31;10.60;99.90
56512;DHT22;42408;53.238;5.686;2024-03-22T11:08:59;10.70;99.90
56512;DHT22;42408;53.238;5.686;2024-03-22T11:11:28;10.50;99.90
56512;DHT22;42408;53.238;5.686;2024-03-22T11:13:54;10.70;99.90
56512;DHT22;42408;53.238;5.686;2024-03-22T11:16:21;10.40;99.90
56512;DHT22;42408;53.238;5.686;2024-03-22T11:18:47;10.50;99.90
56512;DHT22;42408;53.238;5.686;2024-03-22T11:21:14;10.50;99.90
56512;DHT22;42408;53.238;5.686;2024-03-22T11:23:40;10.50;99.90
56512;DHT22;42408;53.238;5.686;2024-03-22T11:26:06;10.80;99.90
56512;DHT22;42408;53.238;5.686;2024-03-22T11:28:33;10.70;99.90
56512;DHT22;42408;53.238;5.686;2024-03-22T11:30:59;10.90;99.90
56512;DHT22;42408;53.238;5.686;2024-03-22T11:33:25;10.90;99.90
56512;DHT22;42408;53.238;5.686;2024-03-22T11:35:52;10.90;99.90
56512;DHT22;42408;53.238;5.686;2024-03-22T11:38:18;10.90;99.90
56512;DHT22;42408;53.238;5.686;2024-03-22T11:40:44;11.10;99.90
56512;DHT22;42408;53.238;5.686;2024-03-22T11:43:10;11.10;99.90
56512;DHT22;42408;53.238;5.686;2024-03-22T11:45:37;11.00;99.90
56512;DHT22;42408;53.238;5.686;2024-03-22T11:48:03;11.00;99.90
56512;DHT22;42408;53.238;5.686;2024-03-22T11:50:29;11.00;99.90
56512;DHT22;42408;53.238;5.686;2024-03-22T11:52:56;11.00;99.90
56512;DHT22;42408;53.238;5.686;2024-03-22T11:55:21;11.10;99.90
56512;DHT22;42408;53.238;5.686;2024-03-22T11:57:50;11.10;99.90
56512;DHT22;42408;53.238;5.686;2024-03-22T12:00:19;11.10;99.90
56512;DHT22;42408;53.238;5.686;2024-03-22T12:02:45;11.30;99.90
56512;DHT22;42408;53.238;5.686;2024-03-22T12:05:11;12.00;99.90
56512;DHT22;42408;53.238;5.686;2024-03-22T12:07:37;11.40;99.90
56512;DHT22;42408;53.238;5.686;2024-03-22T12:10:03;11.40;99.90
56512;DHT22;42408;53.238;5.686;2024-03-22T12:12:29;11.50;99.90
56512;DHT22;42408;53.238;5.686;2024-03-22T12:14:55;11.60;99.90
56512;DHT22;42408;53.238;5.686;2024-03-22T12:17:21;11.70;99.90
56512;DHT22;42408;53.238;5.686;2024-03-22T12:19:47;11.60;99.90
56512;DHT22;42408;53.238;5.686;2024-03-22T12:22:13;11.60;99.90
56512;DHT22;42408;53.238;5.686;2024-03-22T12:24:38;11.60;99.90
56512;DHT22;42408;53.238;5.686;2024-03-22T12:27:04;11.70;99.90
56512;DHT22;42408;53.238;5.686;2024-03-22T12:29:33;11.60;99.90
56512;DHT22;42408;53.238;5.686;2024-03-22T12:31:59;11.50;99.90
56512;DHT22;42408;53.238;5.686;2024-03-22T12:34:32;11.50;99.90
56512;DHT22;42408;53.238;5.686;2024-03-22T12:36:59;11.60;99.90
56512;DHT22;42408;53.238;5.686;2024-03-22T12:39:25;11.30;99.90
56512;DHT22;42408;53.238;5.686;2024-03-22T12:41:51;11.60;99.90
56512;DHT22;42408;53.238;5.686;2024-03-22T12:44:17;11.90;99.90
56512;DHT22;42408;53.238;5.686;2024-03-22T12:46:42;11.30;99.90
56512;DHT22;42408;53.238;5.686;2024-03-22T12:49:10;11.40;99.90
56512;DHT22;42408;53.238;5.686;2024-03-22T12:51:36;11.20;99.90
56512;DHT22;42408;53.238;5.686;2024-03-22T12:54:02;10.90;99.90
56512;DHT22;42408;53.238;5.686;2024-03-22T12:56:28;11.00;99.90
56512;DHT22;42408;53.238;5.686;2024-03-22T12:58:54;11.20;99.90
56512;DHT22;42408;53.238;5.686;2024-03-22T13:01:20;11.00;99.90
56512;DHT22;42408;53.238;5.686;2024-03-22T13:03:46;10.80;99.90
56512;DHT22;42408;53.238;5.686;2024-03-22T13:06:12;11.10;99.90
56512;DHT22;42408;53.238;5.686;2024-03-22T13:08:38;10.90;99.90
56512;DHT22;42408;53.238;5.686;2024-03-22T13:11:04;11.30;99.90
56512;DHT22;42408;53.238;5.686;2024-03-22T13:13:30;11.20;99.90
56512;DHT22;42408;53.238;5.686;2024-03-22T13:15:58;10.90;99.90
56512;DHT22;42408;53.238;5.686;2024-03-22T13:18:24;11.00;99.90
56512;DHT22;42408;53.238;5.686;2024-03-22T13:20:50;10.90;99.90
56512;DHT22;42408;53.238;5.686;2024-03-22T13:23:15;11.00;99.90
56512;DHT22;42408;53.238;5.686;2024-03-22T13:25:41;10.90;99.90
56512;DHT22;42408;53.238;5.686;2024-03-22T13:28:07;10.70;99.90
56512;DHT22;42408;53.238;5.686;2024-03-22T13:30:32;11.10;99.90
56512;DHT22;42408;53.238;5.686;2024-03-22T13:33:00;10.80;99.90
56512;DHT22;42408;53.238;5.686;2024-03-22T13:35:26;10.90;99.90
56512;DHT22;42408;53.238;5.686;2024-03-22T13:37:52;10.60;99.90
56512;DHT22;42408;53.238;5.686;2024-03-22T13:40:18;10.80;99.90
56512;DHT22;42408;53.238;5.686;2024-03-22T13:42:43;10.80;99.90
56512;DHT22;42408;53.238;5.686;2024-03-22T13:45:09;10.70;99.90
56512;DHT22;42408;53.238;5.686;2024-03-22T13:47:35;10.70;99.90
56512;DHT22;42408;53.238;5.686;2024-03-22T13:50:06;10.60;99.90
56512;DHT22;42408;53.238;5.686;2024-03-22T13:52:32;10.70;99.90
56512;DHT22;42408;53.238;5.686;2024-03-22T13:54:57;10.80;99.90
56512;DHT22;42408;53.238;5.686;2024-03-22T13:57:25;10.80;99.90
56512;DHT22;42408;53.238;5.686;2024-03-22T13:59:51;10.80;99.90
56512;DHT22;42408;53.238;5.686;2024-03-22T14:02:17;11.00;99.90
56512;DHT22;42408;53.238;5.686;2024-03-22T14:04:42;11.00;99.90
56512;DHT22;42408;53.238;5.686;2024-03-22T14:07:08;11.20;99.90
56512;DHT22;42408;53.238;5.686;2024-03-22T14:09:35;11.00;99.90
56512;DHT22;42408;53.238;5.686;2024-03-22T14:12:01;11.00;99.90
56512;DHT22;42408;53.238;5.686;2024-03-22T14:14:28;11.00;99.90
56512;DHT22;42408;53.238;5.686;2024-03-22T14:16:54;11.10;99.90
56512;DHT22;42408;53.238;5.686;2024-03-22T14:19:20;11.10;99.90
56512;DHT22;42408;53.238;5.686;2024-03-22T14:21:46;11.10;99.90
56512;DHT22;42408;53.238;5.686;2024-03-22T14:24:12;11.10;99.90
56512;DHT22;42408;53.238;5.686;2024-03-22T14:26:37;11.20;99.90
56512;DHT22;42408;53.238;5.686;2024-03-22T14:29:10;11.00;99.90
56512;DHT22;42408;53.238;5.686;2024-03-22T14:31:37;11.10;99.90
56512;DHT22;42408;53.238;5.686;2024-03-22T14:34:03;11.10;99.90
56512;DHT22;42408;53.238;5.686;2024-03-22T14:36:29;11.10;99.90
56512;DHT22;42408;53.238;5.686;2024-03-22T14:38:55;11.10;99.90
56512;DHT22;42408;53.238;5.686;2024-03-22T14:41:20;11.00;99.90
56512;DHT22;42408;53.238;5.686;2024-03-22T14:43:46;11.10;99.90
56512;DHT22;42408;53.238;5.686;2024-03-22T14:46:12;11.00;99.90
56512;DHT22;42408;53.238;5.686;2024-03-22T14:48:37;11.20;99.90
56512;DHT22;42408;53.238;5.686;2024-03-22T14:51:03;10.90;99.90
56512;DHT22;42408;53.238;5.686;2024-03-22T14:53:29;10.90;99.90
56512;DHT22;42408;53.238;5.686;2024-03-22T14:56:00;10.90;99.90
56512;DHT22;42408;53.238;5.686;2024-03-22T14:58:32;10.90;99.90
56512;DHT22;42408;53.238;5.686;2024-03-22T15:01:00;11.00;99.90
56512;DHT22;42408;53.238;5.686;2024-03-22T15:03:26;10.90;99.90
56512;DHT22;42408;53.238;5.686;2024-03-22T15:05:53;11.00;99.90
56512;DHT22;42408;53.238;5.686;2024-03-22T15:08:21;11.00;99.90
56512;DHT22;42408;53.238;5.686;2024-03-22T15:10:46;11.00;99.90
56512;DHT22;42408;53.238;5.686;2024-03-22T15:13:14;11.10;99.90
56512;DHT22;42408;53.238;5.686;2024-03-22T15:15:40;11.30;99.90
56512;DHT22;42408;53.238;5.686;2024-03-22T15:18:06;11.00;99.90
56512;DHT22;42408;53.238;5.686;2024-03-22T15:20:32;11.00;99.90
56512;DHT22;42408;53.238;5.686;2024-03-22T15:22:58;11.10;99.90
56512;DHT22;42408;53.238;5.686;2024-03-22T15:25:24;11.30;99.90